Time;durP1;ratioP1;P1;durP2;ratioP2;P2;SDS_P1;SDS_P2;PMS_P1;PMS_P2;Temp;Humidity;BMP_temperature;BMP_pressure;BME280_temperature;BME280_humidity;BME280_pressure;Samples;Min_cycle;Max_cycle;Signal;HPM_P1;HPM_P2
2023/04/27 00:03:46;;;;;;;4.10;3.70;;;10.50;92.70;;;;;;10372405;28;20661;-79
2023/04/27 00:08:48;;;;;;;5.33;3.83;;;10.50;92.60;;;;;;10374675;28;20652;-79
2023/04/27 00:13:51;;;;;;;4.57;4.17;;;10.40;93.80;;;;;;10396762;28;20218;-79
2023/04/27 00:18:53;;;;;;;5.50;4.07;;;10.40;93.10;;;;;;10397425;28;20240;-80
2023/04/27 00:23:55;;;;;;;6.73;4.60;;;10.50;93.40;;;;;;10378243;28;20296;-79
2023/04/27 00:28:58;;;;;;;5.40;4.43;;;10.50;93.50;;;;;;10401846;28;20662;-79
2023/04/27 00:34:01;;;;;;;7.27;5.10;;;10.50;93.60;;;;;;10381717;28;20227;-79
2023/04/27 00:39:03;;;;;;;4.67;4.23;;;10.40;93.60;;;;;;10385573;28;20233;-79
2023/04/27 00:44:08;;;;;;;6.33;4.10;;;10.40;92.20;;;;;;10382539;28;20679;-79
2023/04/27 00:49:10;;;;;;;6.30;3.83;;;10.50;92.20;;;;;;10383226;28;20244;-79
2023/04/27 00:54:13;;;;;;;5.73;4.53;;;10.50;93.00;;;;;;10384828;28;20195;-79
2023/04/27 00:59:17;;;;;;;4.87;4.37;;;10.40;93.80;;;;;;10397579;28;20245;-79
2023/04/27 01:04:20;;;;;;;5.23;4.30;;;10.40;93.60;;;;;;10396981;28;20591;-79
2023/04/27 01:09:22;;;;;;;5.50;4.00;;;10.40;93.10;;;;;;10383314;28;20225;-79
2023/04/27 01:14:26;;;;;;;4.60;4.10;;;10.50;92.00;;;;;;10403806;28;20226;-79
2023/04/27 01:19:28;;;;;;;4.07;3.70;;;10.50;92.50;;;;;;10391026;28;20219;-80
2023/04/27 01:24:32;;;;;;;5.27;4.30;;;10.50;93.10;;;;;;10365737;28;20195;-79
2023/04/27 01:29:34;;;;;;;4.60;4.20;;;10.50;93.50;;;;;;10402733;28;20541;-79
2023/04/27 01:34:37;;;;;;;4.40;4.00;;;10.40;94.00;;;;;;10379550;28;20194;-80
2023/04/27 01:39:41;;;;;;;4.83;4.33;;;10.40;93.50;;;;;;10381371;28;20276;-80
2023/04/27 01:44:43;;;;;;;4.53;4.10;;;10.40;93.60;;;;;;10385730;28;20203;-79
2023/04/27 01:49:45;;;;;;;5.30;4.80;;;10.30;93.70;;;;;;10376798;28;20273;-80
2023/04/27 01:54:49;;;;;;;4.90;4.50;;;10.30;93.60;;;;;;10363241;28;20202;-79
2023/04/27 01:59:51;;;;;;;4.70;4.40;;;10.20;93.60;;;;;;10379262;28;20628;-80
2023/04/27 02:04:53;;;;;;;4.83;4.40;;;10.20;94.00;;;;;;10371048;28;20647;-79
2023/04/27 02:09:57;;;;;;;6.60;4.83;;;10.20;93.70;;;;;;10376331;28;20242;-78
2023/04/27 02:14:59;;;;;;;7.27;4.27;;;10.10;93.70;;;;;;10370374;28;20199;-79
2023/04/27 02:20:01;;;;;;;6.57;5.07;;;10.10;93.60;;;;;;10326939;28;20683;-78
2023/04/27 02:25:06;;;;;;;5.43;4.93;;;10.00;93.30;;;;;;10370130;28;20253;-80
2023/04/27 02:30:10;;;;;;;7.97;4.73;;;10.00;93.10;;;;;;10374885;28;20218;-79
2023/04/27 02:35:37;;;;;;;5.67;4.80;;;10.00;92.90;;;;;;10403022;28;20190;-79
2023/04/27 02:41:01;;;;;;;7.37;5.23;;;10.00;93.40;;;;;;10396922;28;20210;-80
2023/04/27 02:46:22;;;;;;;11.23;8.63;;;10.10;93.70;;;;;;10395491;28;20631;-79
2023/04/27 02:51:45;;;;;;;7.17;5.73;;;10.10;93.40;;;;;;10384765;28;20214;-80
2023/04/27 02:57:07;;;;;;;6.03;5.47;;;10.10;93.50;;;;;;10407412;28;20194;-79
2023/04/27 03:02:27;;;;;;;8.03;5.67;;;10.10;94.10;;;;;;10370289;28;20227;-80
2023/04/27 03:07:51;;;;;;;7.97;7.20;;;10.10;94.30;;;;;;10388188;28;20191;-80
2023/04/27 03:13:15;;;;;;;7.13;6.43;;;10.10;94.20;;;;;;10390799;28;20585;-79
2023/04/27 03:18:36;;;;;;;6.43;5.93;;;10.10;94.20;;;;;;10380610;28;20694;-79
2023/04/27 03:23:39;;;;;;;7.20;6.00;;;10.10;94.80;;;;;;10394418;28;20288;-79
2023/04/27 03:28:42;;;;;;;7.33;6.63;;;10.20;94.70;;;;;;10362310;28;20195;-79
2023/04/27 03:33:44;;;;;;;7.30;6.10;;;10.20;94.30;;;;;;10395157;28;20265;-79
2023/04/27 03:38:46;;;;;;;7.00;5.90;;;10.20;95.00;;;;;;10383927;28;20210;-79
2023/04/27 03:43:52;;;;;;;6.77;6.17;;;10.20;94.20;;;;;;10364603;28;20318;-80
2023/04/27 03:48:54;;;;;;;6.33;5.73;;;10.20;94.70;;;;;;10412425;28;20199;-80
2023/04/27 03:53:56;;;;;;;10.00;6.13;;;10.20;94.90;;;;;;10365066;28;20251;-80
2023/04/27 03:59:00;;;;;;;8.00;7.20;;;10.20;95.70;;;;;;10369064;28;20741;-79
2023/04/27 04:04:08;;;;;;;9.30;6.03;;;10.20;95.50;;;;;;10387801;28;20203;-80
2023/04/27 04:09:11;;;;;;;6.90;6.30;;;10.20;94.70;;;;;;10394612;28;20199;-79
2023/04/27 04:14:17;;;;;;;6.90;6.30;;;10.20;94.90;;;;;;10355083;28;20230;-80
2023/04/27 04:19:19;;;;;;;7.97;7.13;;;10.20;95.20;;;;;;10406185;28;20215;-79
2023/04/27 04:24:21;;;;;;;9.23;6.50;;;10.20;95.80;;;;;;10422822;28;20206;-78
2023/04/27 04:29:26;;;;;;;7.53;7.03;;;10.20;95.50;;;;;;10383186;28;20222;-79
2023/04/27 04:34:28;;;;;;;8.73;7.20;;;10.20;95.60;;;;;;10374708;28;20585;-78
2023/04/27 04:39:31;;;;;;;8.13;7.33;;;10.20;95.70;;;;;;10394075;28;20250;-79
2023/04/27 04:44:34;;;;;;;8.17;7.47;;;10.20;96.00;;;;;;10399094;28;20203;-79
2023/04/27 04:49:39;;;;;;;8.40;7.50;;;10.20;95.40;;;;;;10376050;28;20230;-79
2023/04/27 04:54:43;;;;;;;9.80;8.90;;;10.30;95.60;;;;;;10391075;28;20204;-78
2023/04/27 04:59:50;;;;;;;10.00;7.73;;;10.30;95.60;;;;;;10350158;28;20245;-79
2023/04/27 05:04:52;;;;;;;8.73;7.83;;;10.30;95.80;;;;;;10346163;28;20246;-79
2023/04/27 05:09:56;;;;;;;9.33;8.43;;;10.40;95.20;;;;;;10355653;28;20255;-80
2023/04/27 05:14:59;;;;;;;8.80;7.93;;;10.40;95.30;;;;;;10365017;28;20199;-81
2023/04/27 05:20:03;;;;;;;7.83;7.13;;;10.50;95.50;;;;;;10363323;28;20310;-80
2023/04/27 05:25:06;;;;;;;12.13;7.67;;;10.50;95.20;;;;;;10361074;28;20192;-80
2023/04/27 05:30:11;;;;;;;8.50;7.80;;;10.60;96.20;;;;;;10340654;28;20734;-78
2023/04/27 05:35:13;;;;;;;8.83;7.73;;;10.80;97.00;;;;;;10349215;28;20279;-80
2023/04/27 05:40:15;;;;;;;8.87;8.00;;;10.90;96.30;;;;;;10357351;28;20223;-79
2023/04/27 05:45:19;;;;;;;8.63;7.80;;;11.10;96.50;;;;;;10386218;28;20233;-78
2023/04/27 05:50:23;;;;;;;8.47;7.67;;;11.30;95.60;;;;;;10381833;28;20211;-79
2023/04/27 05:55:26;;;;;;;9.33;8.40;;;11.50;95.60;;;;;;10378179;28;20229;-81
2023/04/27 06:00:30;;;;;;;8.40;7.70;;;11.70;95.20;;;;;;10391044;28;20698;-81
2023/04/27 06:05:33;;;;;;;9.10;8.33;;;11.80;95.70;;;;;;10391456;28;20637;-81
2023/04/27 06:10:35;;;;;;;9.00;8.30;;;11.90;95.20;;;;;;10397138;28;20215;-80
2023/04/27 06:15:39;;;;;;;9.87;8.97;;;12.20;95.40;;;;;;10406480;28;20199;-80
2023/04/27 06:20:41;;;;;;;9.30;8.57;;;12.30;95.10;;;;;;10418035;28;20226;-81
2023/04/27 06:25:44;;;;;;;9.93;8.80;;;12.50;94.10;;;;;;10386277;28;20197;-79
2023/04/27 06:30:47;;;;;;;10.07;9.03;;;12.60;94.30;;;;;;10365392;28;20637;-79
2023/04/27 06:35:49;;;;;;;8.83;8.00;;;12.80;94.20;;;;;;10403673;28;20611;-80
2023/04/27 06:40:52;;;;;;;9.53;8.67;;;13.00;94.10;;;;;;10378324;28;20214;-80
2023/04/27 06:45:55;;;;;;;9.33;8.13;;;13.10;94.30;;;;;;10404837;28;20194;-79
2023/04/27 06:50:57;;;;;;;11.13;8.60;;;13.20;93.40;;;;;;10384536;28;21034;-82
2023/04/27 06:56:00;;;;;;;9.47;8.53;;;13.30;93.40;;;;;;10381565;28;20212;-81
2023/04/27 07:01:04;;;;;;;9.80;8.53;;;13.40;93.90;;;;;;10400595;28;20253;-81
2023/04/27 07:06:06;;;;;;;10.40;9.60;;;13.50;93.50;;;;;;10393614;28;20203;-81
2023/04/27 07:11:08;;;;;;;10.10;9.20;;;13.60;93.20;;;;;;10392380;28;20297;-81
2023/04/27 07:16:11;;;;;;;8.73;7.83;;;13.70;92.50;;;;;;10386728;28;20199;-80
2023/04/27 07:21:13;;;;;;;10.43;9.47;;;13.60;93.10;;;;;;10393460;28;20226;-79
2023/04/27 07:26:16;;;;;;;9.20;8.20;;;13.50;93.10;;;;;;10390742;28;20674;-80
2023/04/27 07:31:20;;;;;;;8.10;7.40;;;13.50;93.30;;;;;;10394612;28;20218;-80
2023/04/27 07:36:22;;;;;;;9.77;8.80;;;13.70;94.20;;;;;;10386858;28;20202;-79
2023/04/27 07:41:24;;;;;;;7.77;7.07;;;13.90;92.50;;;;;;10400991;28;20683;-79
2023/04/27 07:46:29;;;;;;;7.90;7.30;;;14.20;92.60;;;;;;10399602;28;20237;-80
2023/04/27 07:51:33;;;;;;;9.40;8.20;;;14.60;91.00;;;;;;10406868;28;20337;-80
2023/04/27 07:56:35;;;;;;;8.00;6.67;;;15.00;91.60;;;;;;10383972;28;20211;-81
2023/04/27 08:01:39;;;;;;;8.43;6.83;;;15.40;90.90;;;;;;10404847;28;20694;-80
2023/04/27 08:06:41;;;;;;;6.30;5.70;;;15.60;90.70;;;;;;10374055;28;20737;-79
2023/04/27 08:11:43;;;;;;;6.57;5.87;;;15.80;90.40;;;;;;10390807;28;20210;-81
2023/04/27 08:16:46;;;;;;;6.50;6.00;;;16.00;90.70;;;;;;10400369;28;20195;-79
2023/04/27 08:21:49;;;;;;;8.00;5.87;;;16.20;85.50;;;;;;10403295;28;20222;-81
2023/04/27 08:26:51;;;;;;;5.20;4.70;;;16.40;86.70;;;;;;10370578;28;20221;-81
2023/04/27 08:31:54;;;;;;;6.13;5.30;;;16.60;85.20;;;;;;10366570;28;20211;-81
2023/04/27 08:36:57;;;;;;;6.10;4.63;;;16.70;79.20;;;;;;10383615;28;20225;-81
2023/04/27 08:41:59;;;;;;;6.13;5.63;;;16.50;76.50;;;;;;10402512;28;20222;-80
2023/04/27 08:47:04;;;;;;;4.63;4.13;;;16.10;83.40;;;;;;10383217;28;20245;-80
2023/04/27 08:52:10;;;;;;;6.07;5.50;;;16.10;83.60;;;;;;10382991;28;20269;-80
2023/04/27 08:57:14;;;;;;;6.77;6.17;;;16.20;82.80;;;;;;10403425;28;20202;-81
2023/04/27 09:02:21;;;;;;;6.77;6.23;;;16.20;82.10;;;;;;10383432;28;20695;-81
2023/04/27 09:07:23;;;;;;;9.83;6.37;;;16.10;83.60;;;;;;10382748;28;20651;-82
2023/04/27 09:12:25;;;;;;;6.50;5.83;;;16.10;80.60;;;;;;10360053;28;20203;-81
2023/04/27 09:17:30;;;;;;;6.63;5.67;;;16.40;82.70;;;;;;10365225;28;20206;-81
2023/04/27 09:22:32;;;;;;;7.67;6.87;;;16.70;85.60;;;;;;10403330;28;20215;-82
2023/04/27 09:27:34;;;;;;;6.63;6.03;;;17.20;83.00;;;;;;10384485;28;20195;-82
2023/04/27 09:32:38;;;;;;;10.00;6.93;;;17.50;83.50;;;;;;10395163;28;20215;-82
2023/04/27 09:37:40;;;;;;;8.73;5.40;;;17.80;83.60;;;;;;10370413;28;20209;-82
2023/04/27 09:42:43;;;;;;;6.07;5.20;;;18.10;79.10;;;;;;10368546;28;20273;-82
2023/04/27 09:47:47;;;;;;;9.80;5.47;;;18.30;82.20;;;;;;10387707;28;20250;-82
2023/04/27 09:52:49;;;;;;;6.23;5.60;;;18.50;80.40;;;;;;10384257;28;20234;-82
2023/04/27 09:57:57;;;;;;;6.20;5.47;;;18.70;74.00;;;;;;10416191;28;20192;-82
2023/04/27 10:03:16;;;;;;;5.53;5.03;;;18.80;72.70;;;;;;10403270;28;20223;-81
2023/04/27 10:08:19;;;;;;;6.17;5.57;;;19.00;75.50;;;;;;10429746;28;20245;-81
2023/04/27 10:13:23;;;;;;;5.97;5.37;;;19.20;76.20;;;;;;10444901;28;20210;-81
2023/04/27 10:18:29;;;;;;;5.60;4.97;;;19.10;76.40;;;;;;10377815;28;20199;-81
2023/04/27 10:23:31;;;;;;;5.87;5.37;;;18.80;74.60;;;;;;10367744;28;20550;-81
2023/04/27 10:28:38;;;;;;;5.40;4.80;;;18.50;75.30;;;;;;10400777;28;20230;-81
2023/04/27 10:33:43;;;;;;;7.53;5.90;;;18.20;75.00;;;;;;10385700;28;20216;-80
2023/04/27 10:38:45;;;;;;;6.87;6.07;;;17.80;74.50;;;;;;10391737;28;20277;-80
2023/04/27 10:43:48;;;;;;;8.20;6.27;;;17.40;75.90;;;;;;10386020;28;20222;-80
2023/04/27 10:48:51;;;;;;;6.20;5.60;;;17.20;76.60;;;;;;10422466;28;20202;-81
2023/04/27 10:53:54;;;;;;;9.97;6.50;;;17.00;79.00;;;;;;10404853;28;20631;-81
2023/04/27 10:59:02;;;;;;;7.40;6.70;;;16.80;76.20;;;;;;10405478;28;20226;-81
2023/04/27 11:04:06;;;;;;;6.20;5.30;;;16.70;77.00;;;;;;10380274;28;20264;-80
2023/04/27 11:09:09;;;;;;;8.13;5.50;;;16.70;79.50;;;;;;10384591;28;20196;-81
2023/04/27 11:14:16;;;;;;;5.77;5.20;;;16.70;78.10;;;;;;10406372;28;20246;-81
2023/04/27 11:19:19;;;;;;;5.37;4.90;;;16.80;80.60;;;;;;10389078;28;20282;-81
2023/04/27 11:24:22;;;;;;;5.53;5.03;;;16.90;77.50;;;;;;10400481;28;20218;-81
2023/04/27 11:29:24;;;;;;;5.20;4.77;;;16.90;76.70;;;;;;10368342;28;20196;-81
2023/04/27 11:34:33;;;;;;;7.33;5.60;;;16.90;82.20;;;;;;10404434;28;20198;-81
2023/04/27 11:39:37;;;;;;;9.10;7.07;;;16.80;79.20;;;;;;10365545;28;20222;-80
2023/04/27 11:44:39;;;;;;;6.00;5.40;;;16.80;78.60;;;;;;10387962;28;20266;-83
2023/04/27 11:49:47;;;;;;;5.70;5.20;;;16.90;79.50;;;;;;10388221;28;20215;-81
2023/04/27 11:54:51;;;;;;;6.03;5.53;;;16.90;78.70;;;;;;10382183;28;20222;-81
2023/04/27 11:59:54;;;;;;;6.00;5.37;;;16.90;80.50;;;;;;10386269;28;20222;-81
2023/04/27 12:04:59;;;;;;;6.07;5.53;;;16.90;78.50;;;;;;10392615;28;20223;-82
2023/04/27 12:10:01;;;;;;;6.23;5.63;;;17.00;78.60;;;;;;10401556;28;20718;-82
2023/04/27 12:15:03;;;;;;;8.77;5.97;;;17.00;78.20;;;;;;10389438;28;20564;-82
2023/04/27 12:20:08;;;;;;;10.83;6.17;;;16.90;79.20;;;;;;10394665;28;20567;-82
2023/04/27 12:25:10;;;;;;;7.40;6.70;;;16.90;79.20;;;;;;10416779;28;20214;-81
2023/04/27 12:30:13;;;;;;;8.77;6.27;;;16.90;75.50;;;;;;10392153;28;20278;-80
2023/04/27 12:35:17;;;;;;;7.20;6.50;;;16.90;73.80;;;;;;10384718;28;20266;-84
2023/04/27 12:40:19;;;;;;;8.60;6.33;;;16.80;75.40;;;;;;10375646;28;20227;-81
2023/04/27 12:45:21;;;;;;;6.47;5.33;;;16.70;77.90;;;;;;10381906;28;20286;-81
2023/04/27 12:50:25;;;;;;;7.40;6.60;;;16.70;79.00;;;;;;10391870;28;20239;-81
2023/04/27 12:55:28;;;;;;;7.80;5.50;;;16.90;73.10;;;;;;10366264;28;20226;-81
2023/04/27 13:00:30;;;;;;;5.97;5.57;;;16.90;80.30;;;;;;10372698;28;20218;-81
2023/04/27 13:05:34;;;;;;;5.83;5.10;;;17.10;79.90;;;;;;10395807;28;20199;-81
2023/04/27 13:10:36;;;;;;;6.63;5.93;;;17.20;79.40;;;;;;10398727;28;20217;-82
2023/04/27 13:15:38;;;;;;;7.30;6.33;;;17.30;78.40;;;;;;10394341;28;20827;-81
2023/04/27 13:20:42;;;;;;;5.90;5.40;;;17.50;74.20;;;;;;10397640;28;20555;-82
2023/04/27 13:25:45;;;;;;;7.50;6.30;;;17.60;75.70;;;;;;10412174;28;20231;-82
2023/04/27 13:30:47;;;;;;;6.57;5.97;;;17.60;73.40;;;;;;10377278;28;20219;-81
2023/04/27 13:35:51;;;;;;;7.50;6.60;;;17.60;71.40;;;;;;10396402;28;20222;-82
2023/04/27 13:40:53;;;;;;;5.20;4.80;;;17.50;77.00;;;;;;10414989;28;20231;-82
2023/04/27 13:45:56;;;;;;;6.33;5.80;;;17.40;77.20;;;;;;10391339;28;20198;-81
2023/04/27 13:50:59;;;;;;;11.73;5.43;;;17.40;76.90;;;;;;10397270;28;20225;-81
2023/04/27 13:56:01;;;;;;;6.43;5.83;;;17.20;79.60;;;;;;10396434;28;20206;-81
2023/04/27 14:01:03;;;;;;;5.83;5.30;;;17.20;77.60;;;;;;10390465;28;20219;-81
2023/04/27 14:06:07;;;;;;;5.73;5.20;;;17.10;80.80;;;;;;10408024;28;20245;-81
2023/04/27 14:11:13;;;;;;;5.63;5.10;;;17.10;79.80;;;;;;10373846;28;20218;-82
2023/04/27 14:16:15;;;;;;;18.10;16.00;;;17.10;81.90;;;;;;10394802;28;20227;-81
2023/04/27 14:21:18;;;;;;;6.73;5.80;;;17.10;78.10;;;;;;10393418;28;20218;-81
2023/04/27 14:26:20;;;;;;;5.80;5.30;;;17.20;76.90;;;;;;10415527;28;20219;-80
2023/04/27 14:31:23;;;;;;;5.03;4.60;;;17.40;71.60;;;;;;10404708;28;20217;-81
2023/04/27 14:36:27;;;;;;;5.50;5.00;;;17.40;76.20;;;;;;10375356;28;20222;-80
2023/04/27 14:41:29;;;;;;;5.13;4.63;;;17.30;76.50;;;;;;10416672;28;20211;-80
2023/04/27 14:46:32;;;;;;;6.03;4.53;;;17.40;77.80;;;;;;10396606;28;20230;-81
2023/04/27 14:51:35;;;;;;;5.83;4.33;;;17.40;81.70;;;;;;10369572;28;20210;-81
2023/04/27 14:56:37;;;;;;;4.87;4.37;;;17.40;81.40;;;;;;10394892;28;20660;-79
2023/04/27 15:01:39;;;;;;;5.67;5.07;;;17.50;82.70;;;;;;10384003;28;20229;-81
2023/04/27 15:06:43;;;;;;;6.70;5.30;;;17.50;84.90;;;;;;10386307;28;20197;-81
2023/04/27 15:11:45;;;;;;;4.40;4.00;;;17.60;77.40;;;;;;10400468;28;20214;-82
2023/04/27 15:16:49;;;;;;;5.10;4.60;;;17.60;82.00;;;;;;10412947;28;20197;-80
2023/04/27 15:21:52;;;;;;;5.47;4.93;;;17.70;83.20;;;;;;10391097;28;20223;-80
2023/04/27 15:26:54;;;;;;;4.63;4.23;;;17.70;85.40;;;;;;10382104;28;20198;-81
2023/04/27 15:31:56;;;;;;;5.03;4.00;;;17.70;78.90;;;;;;10395814;28;20207;-80
2023/04/27 15:37:01;;;;;;;4.70;4.00;;;17.60;77.50;;;;;;10375415;28;20200;-81
2023/04/27 15:42:04;;;;;;;12.03;4.83;;;17.60;82.40;;;;;;10398224;28;20230;-80
2023/04/27 15:47:06;;;;;;;4.90;4.50;;;17.40;80.30;;;;;;10380985;28;20282;-81
2023/04/27 15:52:10;;;;;;;5.63;5.13;;;17.40;81.10;;;;;;10412024;28;20294;-80
2023/04/27 15:57:12;;;;;;;5.40;4.90;;;17.30;80.20;;;;;;10384515;28;20218;-81
2023/04/27 16:02:14;;;;;;;6.10;4.60;;;17.10;83.20;;;;;;10403976;28;20735;-80
2023/04/27 16:07:17;;;;;;;5.67;5.03;;;17.00;81.20;;;;;;10386466;28;20222;-80
2023/04/27 16:12:20;;;;;;;6.90;4.97;;;16.90;79.80;;;;;;10414368;28;20743;-80
2023/04/27 16:17:22;;;;;;;7.73;5.10;;;16.90;80.70;;;;;;10396701;28;20554;-79
2023/04/27 16:22:26;;;;;;;5.47;4.97;;;16.90;82.60;;;;;;10370605;28;20707;-80
2023/04/27 16:27:28;;;;;;;6.27;5.67;;;16.90;82.50;;;;;;10428519;28;20185;-80
2023/04/27 16:32:31;;;;;;;5.63;5.07;;;16.90;80.90;;;;;;10416867;28;20218;-81
2023/04/27 16:37:35;;;;;;;6.83;6.23;;;16.80;81.50;;;;;;10369087;28;20211;-79
2023/04/27 16:42:37;;;;;;;6.27;5.67;;;16.60;83.60;;;;;;10368269;28;20219;-79
2023/04/27 16:47:40;;;;;;;6.07;5.57;;;16.50;83.30;;;;;;10404686;28;20197;-80
2023/04/27 16:52:44;;;;;;;7.23;5.70;;;16.40;85.60;;;;;;10408347;28;20710;-80
2023/04/27 16:57:46;;;;;;;8.13;7.33;;;16.30;87.40;;;;;;10423677;28;20258;-80
2023/04/27 17:02:48;;;;;;;6.93;5.70;;;16.20;89.90;;;;;;10391381;28;20226;-81
2023/04/27 17:07:52;;;;;;;6.90;6.30;;;16.00;86.90;;;;;;10385776;28;20203;-80
2023/04/27 17:12:54;;;;;;;12.47;6.10;;;15.90;89.40;;;;;;10363343;28;20635;-79
2023/04/27 17:17:56;;;;;;;7.80;5.97;;;15.90;87.00;;;;;;10387641;28;20559;-80
2023/04/27 17:22:59;;;;;;;5.53;5.03;;;15.80;84.40;;;;;;10407102;28;20237;-79
2023/04/27 17:28:01;;;;;;;6.50;5.90;;;15.80;84.80;;;;;;10388782;28;20195;-80
2023/04/27 17:33:04;;;;;;;8.13;7.43;;;15.90;81.80;;;;;;10368431;28;20219;-80
2023/04/27 17:38:08;;;;;;;9.80;8.90;;;15.80;87.70;;;;;;10417091;28;20278;-79
2023/04/27 17:43:10;;;;;;;7.00;5.17;;;15.70;90.90;;;;;;10418054;28;20272;-77
2023/04/27 17:48:12;;;;;;;8.20;4.80;;;15.60;89.20;;;;;;10369029;28;20191;-80
2023/04/27 17:53:42;;;;;;;4.87;4.47;;;15.60;86.50;;;;;;10343628;28;20219;-79
2023/04/27 17:58:50;;;;;;;4.93;4.40;;;15.60;86.10;;;;;;10358873;28;20203;-79
2023/04/27 18:03:52;;;;;;;5.93;4.40;;;15.60;87.20;;;;;;10363979;28;20251;-80
2023/04/27 18:08:55;;;;;;;4.77;4.37;;;15.70;86.90;;;;;;10385141;28;20253;-80
2023/04/27 18:13:57;;;;;;;5.00;4.60;;;15.60;87.40;;;;;;10391968;28;20269;-80
2023/04/27 18:18:59;;;;;;;5.80;5.10;;;15.60;87.70;;;;;;10388842;28;20612;-79
2023/04/27 18:24:03;;;;;;;5.10;4.70;;;15.60;89.10;;;;;;10420228;28;20663;-80
2023/04/27 18:29:05;;;;;;;5.70;5.13;;;15.50;89.10;;;;;;10388451;28;20717;-80
2023/04/27 18:34:09;;;;;;;7.67;5.30;;;15.40;89.60;;;;;;10377901;28;20228;-79
2023/04/27 18:39:12;;;;;;;5.63;4.90;;;15.40;89.70;;;;;;10403200;28;20198;-79
2023/04/27 18:44:16;;;;;;;4.80;4.40;;;15.30;90.30;;;;;;10346891;28;20223;-79
2023/04/27 18:49:18;;;;;;;7.93;5.63;;;15.20;90.10;;;;;;10326781;28;20627;-79
2023/04/27 18:54:22;;;;;;;5.30;4.80;;;15.10;90.20;;;;;;10397430;28;20287;-79
2023/04/27 18:59:24;;;;;;;6.43;5.93;;;15.00;90.60;;;;;;10400950;28;20202;-81
2023/04/27 19:04:26;;;;;;;6.87;6.20;;;14.90;90.30;;;;;;10412649;28;20218;-82
2023/04/27 19:09:30;;;;;;;6.53;5.93;;;14.80;90.50;;;;;;10396026;28;20219;-82
2023/04/27 19:14:32;;;;;;;7.07;5.73;;;14.70;90.60;;;;;;10365448;28;20202;-81
2023/04/27 19:19:34;;;;;;;5.93;5.40;;;14.60;90.70;;;;;;10369849;28;20234;-81
2023/04/27 19:24:38;;;;;;;9.20;7.30;;;14.50;90.80;;;;;;10417243;28;20296;-81
2023/04/27 19:29:50;;;;;;;6.83;5.10;;;14.50;90.90;;;;;;10401611;28;20281;-81
2023/04/27 19:34:53;;;;;;;7.67;6.90;;;14.40;90.90;;;;;;10351530;28;20207;-81
2023/04/27 19:39:56;;;;;;;12.77;9.87;;;14.30;91.00;;;;;;10389028;28;20246;-82
2023/04/27 19:44:59;;;;;;;7.77;6.30;;;14.20;90.80;;;;;;10400669;28;20639;-81
2023/04/27 19:50:02;;;;;;;5.60;5.10;;;14.10;91.00;;;;;;10384778;28;20651;-81
2023/04/27 19:55:06;;;;;;;6.20;5.27;;;13.90;90.70;;;;;;10349750;28;20196;-82
2023/04/27 20:00:10;;;;;;;5.70;4.53;;;13.90;90.80;;;;;;10375480;28;20266;-81
2023/04/27 20:05:16;;;;;;;6.23;4.93;;;13.90;90.90;;;;;;10394029;28;20218;-82
2023/04/27 20:10:41;;;;;;;5.90;5.07;;;13.90;91.20;;;;;;10399601;28;20361;-81
2023/04/27 20:16:05;;;;;;;6.37;5.80;;;13.80;91.50;;;;;;10340351;28;20679;-81
2023/04/27 20:21:28;;;;;;;5.73;5.13;;;13.70;91.80;;;;;;10393712;28;20222;-82
2023/04/27 20:26:50;;;;;;;5.80;5.40;;;13.70;92.20;;;;;;10395303;28;20199;-81
2023/04/27 20:32:11;;;;;;;8.97;7.00;;;13.70;92.10;;;;;;10386154;28;20265;-81
2023/04/27 20:37:31;;;;;;;7.67;6.80;;;13.60;92.50;;;;;;10389766;28;20601;-82
2023/04/27 20:42:35;;;;;;;6.00;5.50;;;13.60;92.40;;;;;;10394918;28;20219;-81
2023/04/27 20:47:37;;;;;;;6.23;5.63;;;13.60;92.60;;;;;;10414966;28;20195;-81
2023/04/27 20:52:40;;;;;;;7.00;5.60;;;13.60;92.40;;;;;;10381358;28;20241;-81
2023/04/27 20:57:43;;;;;;;7.50;5.80;;;13.50;92.50;;;;;;10379508;28;20286;-81
2023/04/27 21:02:46;;;;;;;10.03;6.40;;;13.50;92.60;;;;;;10412739;28;20215;-80
2023/04/27 21:07:48;;;;;;;8.13;5.60;;;13.50;92.60;;;;;;10370437;28;20252;-80
2023/04/27 21:12:52;;;;;;;6.20;5.70;;;13.50;93.30;;;;;;10410417;28;20631;-81
2023/04/27 21:18:20;;;;;;;6.73;6.00;;;13.40;92.70;;;;;;10411685;28;20191;-80
2023/04/27 21:23:40;;;;;;;5.80;5.30;;;13.40;92.70;;;;;;10414114;23;20230;-81
2023/04/27 21:29:04;;;;;;;7.67;6.73;;;13.40;92.70;;;;;;10429944;28;20194;-81
2023/04/27 21:34:25;;;;;;;7.43;5.37;;;13.30;92.80;;;;;;10385713;28;20195;-81
2023/04/27 21:39:46;;;;;;;5.63;4.97;;;13.40;92.70;;;;;;10386366;28;20211;-81
2023/04/27 21:45:11;;;;;;;5.70;5.20;;;13.40;92.70;;;;;;10382832;28;20203;-80
2023/04/27 21:50:32;;;;;;;5.90;5.40;;;13.30;92.30;;;;;;10351725;28;20214;-80
2023/04/27 21:55:56;;;;;;;7.70;5.37;;;13.30;92.70;;;;;;10379999;28;20179;-80
2023/04/27 22:01:18;;;;;;;6.73;5.70;;;13.20;92.90;;;;;;10380177;28;20211;-81
2023/04/27 22:06:43;;;;;;;6.67;5.90;;;13.20;93.60;;;;;;10378928;28;20221;-80
2023/04/27 22:12:05;;;;;;;5.67;5.23;;;13.20;93.70;;;;;;10380624;28;20576;-80
2023/04/27 22:17:34;;;;;;;9.23;6.77;;;13.20;93.90;;;;;;10362101;28;20588;-80
2023/04/27 22:22:55;;;;;;;7.63;6.20;;;13.10;94.10;;;;;;10362742;28;20219;-80
2023/04/27 22:28:15;;;;;;;7.17;5.40;;;13.10;93.60;;;;;;10301473;28;20197;-79
2023/04/27 22:33:37;;;;;;;6.30;5.70;;;13.10;93.60;;;;;;10380825;28;20218;-82
2023/04/27 22:38:59;;;;;;;5.13;4.73;;;13.00;93.30;;;;;;10380250;28;20198;-80
2023/04/27 22:44:23;;;;;;;5.30;4.80;;;13.00;93.50;;;;;;10364877;28;20238;-80
2023/04/27 22:49:47;;;;;;;5.73;5.33;;;12.90;93.90;;;;;;10381296;28;20609;-81
2023/04/27 22:55:08;;;;;;;6.67;5.10;;;12.90;94.00;;;;;;10377265;28;20195;-80
2023/04/27 23:00:29;;;;;;;5.37;5.00;;;12.90;93.60;;;;;;10358586;28;20330;-80
2023/04/27 23:05:53;;;;;;;4.93;4.50;;;12.80;93.70;;;;;;10361857;28;20301;-80
2023/04/27 23:11:14;;;;;;;6.00;5.50;;;12.80;93.90;;;;;;10380868;28;20360;-80
2023/04/27 23:16:36;;;;;;;6.37;5.77;;;12.70;94.20;;;;;;10357739;28;20191;-81
2023/04/27 23:22:00;;;;;;;6.30;5.00;;;12.70;94.10;;;;;;10379993;28;20227;-80
2023/04/27 23:27:23;;;;;;;5.20;4.80;;;12.70;94.60;;;;;;10366992;28;20191;-80
2023/04/27 23:32:44;;;;;;;5.27;4.77;;;12.70;94.80;;;;;;10375877;28;20275;-80
2023/04/27 23:38:06;;;;;;;5.87;5.47;;;12.80;94.20;;;;;;10375592;28;20191;-80
2023/04/27 23:43:27;;;;;;;5.33;4.87;;;12.80;94.50;;;;;;10371757;28;20220;-80
2023/04/27 23:48:48;;;;;;;5.73;5.23;;;12.90;94.50;;;;;;10354848;28;20208;-81
2023/04/27 23:54:10;;;;;;;5.20;4.53;;;12.90;94.70;;;;;;10374845;28;20219;-80
2023/04/27 23:59:33;;;;;;;4.90;4.47;;;13.00;95.00;;;;;;10375878;28;20202;-81
